Time;durP1;ratioP1;P1;durP2;ratioP2;P2;SDS_P1;SDS_P2;PMS_P1;PMS_P2;Temp;Humidity;BMP_temperature;BMP_pressure;BME280_temperature;BME280_humidity;BME280_pressure;Samples;Min_cycle;Max_cycle;Signal;HPM_P1;HPM_P2
2022/11/05 00:20:16;;;;;;;13.30;7.20;;;;;;;8.48;89.62;100598.03;32017982;27;20107;-85
2022/11/05 00:35:20;;;;;;;14.93;7.23;;;;;;;8.46;89.53;100598.41;32010011;27;20384;-86
2022/11/05 00:50:23;;;;;;;17.10;7.07;;;;;;;8.40;90.38;100605.38;32012449;27;20415;-85
2022/11/05 01:05:25;;;;;;;17.97;7.30;;;;;;;8.25;90.91;100609.28;32000568;27;20054;-85
2022/11/05 01:20:28;;;;;;;17.67;8.10;;;;;;;8.22;91.29;100607.34;32012054;27;20050;-85
2022/11/05 01:35:30;;;;;;;16.70;7.90;;;;;;;8.31;92.23;100610.41;32008694;27;20094;-83
2022/11/05 01:50:41;;;;;;;17.23;8.90;;;;;;;8.52;92.31;100615.78;32026600;27;20142;-83
2022/11/05 02:05:44;;;;;;;18.27;8.57;;;;;;;8.42;92.17;100619.31;32033334;27;20047;-85
2022/11/05 02:21:06;;;;;;;18.67;9.07;;;;;;;8.23;92.51;100635.94;32038240;27;20061;-85
2022/11/05 02:36:34;;;;;;;17.90;8.20;;;;;;;8.02;93.92;100646.78;32037579;27;20051;-86
2022/11/05 02:51:46;;;;;;;18.17;8.23;;;;;;;7.97;93.39;100649.88;32015377;27;20051;-85
2022/11/05 03:07:07;;;;;;;15.03;7.87;;;;;;;8.20;94.23;100655.63;32024774;27;20051;-85
2022/11/05 03:22:15;;;;;;;16.10;7.33;;;;;;;8.28;94.21;100654.44;32030494;27;20057;-83
2022/11/05 03:37:21;;;;;;;14.77;7.57;;;;;;;8.41;93.69;100669.16;32033081;27;20047;-85
2022/11/05 03:52:28;;;;;;;12.73;6.73;;;;;;;8.41;93.79;100669.16;32014715;27;20410;-86
2022/11/05 04:38:19;;;;;;;21.23;10.57;;;;;;;7.42;93.17;100690.72;32026977;27;20488;-84
2022/11/05 04:53:21;;;;;;;26.17;10.90;;;;;;;7.71;94.38;100697.72;32011565;27;20077;-85
2022/11/05 05:08:23;;;;;;;27.67;11.67;;;;;;;8.09;94.64;100711.66;32017140;27;20051;-85
2022/11/05 05:23:25;;;;;;;29.63;13.10;;;;;;;9.58;87.46;100738.38;32028364;27;20058;-84
2022/11/05 05:38:28;;;;;;;26.00;12.50;;;;;;;11.34;78.55;100756.19;32029283;27;20047;-83
2022/11/05 05:53:31;;;;;;;23.27;10.80;;;;;;;13.15;72.68;100753.34;32026855;27;20508;-85
2022/11/05 06:08:33;;;;;;;23.60;9.80;;;;;;;14.09;62.63;100763.81;32035489;27;20456;-84
2022/11/05 06:23:38;;;;;;;17.67;7.93;;;;;;;14.77;58.73;100779.31;32033652;27;20422;-84
2022/11/05 06:38:41;;;;;;;15.03;7.70;;;;;;;15.68;55.28;100775.22;32004169;27;20098;-83
2022/11/05 06:53:42;;;;;;;12.97;7.00;;;;;;;16.29;53.69;100782.31;32006471;27;20047;-85
2022/11/05 07:08:44;;;;;;;11.13;6.50;;;;;;;16.86;52.18;100799.63;32026232;27;20492;-84
2022/11/05 07:23:47;;;;;;;12.83;7.20;;;;;;;17.83;49.28;100797.69;32025829;27;20051;-84
2022/11/05 07:38:49;;;;;;;13.20;8.10;;;;;;;18.45;48.68;100803.81;32019736;27;20083;-84
2022/11/05 07:53:54;;;;;;;11.50;6.75;;;;;;;18.89;46.61;100814.63;32016952;27;20411;-84
2022/11/05 08:08:56;;;;;;;11.38;7.45;;;;;;;19.31;45.85;100806.47;32010143;27;20057;-84
2022/11/05 08:23:58;;;;;;;12.55;7.40;;;;;;;19.85;44.90;100816.59;32016602;27;20047;-83
2022/11/05 08:39:02;;;;;;;13.35;5.63;;;;;;;20.39;43.54;100831.38;32003078;27;20047;-84
2022/11/05 08:54:05;;;;;;;9.20;5.60;;;;;;;17.47;50.49;100833.91;31988212;27;20435;-83
2022/11/05 09:09:07;;;;;;;23.23;9.45;;;;;;;16.52;54.76;100827.78;31990080;27;20054;-84
2022/11/05 09:24:11;;;;;;;10.33;5.30;;;;;;;16.83;53.02;100823.22;32009158;27;20498;-84
2022/11/05 09:39:13;;;;;;;11.57;6.73;;;;;;;16.43;56.58;100828.44;32010171;27;20047;-85
2022/11/05 09:54:15;;;;;;;11.93;5.32;;;;;;;19.10;46.98;100834.94;31997189;27;20055;-85
2022/11/05 10:09:23;;;;;;;6.50;3.40;;;;;;;20.68;40.62;100847.31;32025113;27;20046;-84
2022/11/05 10:24:26;;;;;;;7.47;4.13;;;;;;;20.28;41.90;100844.91;32025838;27;20082;-83
2022/11/05 10:39:30;;;;;;;6.57;3.90;;;;;;;21.34;39.00;100841.59;32004957;27;20042;-84
2022/11/05 10:54:34;;;;;;;7.15;4.18;;;;;;;18.99;43.85;100840.88;32005730;27;20058;-84
2022/11/05 11:09:39;;;;;;;7.60;4.60;;;;;;;16.46;51.49;100833.03;32017942;27;20038;-83
2022/11/05 11:24:50;;;;;;;37.77;16.87;;;;;;;17.57;50.73;100824.50;32027558;27;20111;-85
2022/11/05 11:40:10;;;;;;;31.05;10.73;;;;;;;20.81;41.38;100838.78;32024275;27;20039;-83
2022/11/05 11:55:17;;;;;;;7.88;4.15;;;;;;;21.49;38.38;100849.91;31984873;27;20058;-84
2022/11/05 12:10:37;;;;;;;18.63;9.57;;;;;;;17.79;47.70;100855.47;31995873;27;20057;-84
2022/11/05 12:25:58;;;;;;;22.13;12.47;;;;;;;15.29;57.70;100859.16;32004023;27;20069;-84
2022/11/05 12:41:09;;;;;;;25.47;13.17;;;;;;;14.46;60.92;100864.38;31993861;27;20491;-84
2022/11/05 12:56:24;;;;;;;21.60;12.10;;;;;;;14.36;62.24;100870.84;32034199;27;20061;-85
2022/11/05 13:11:32;;;;;;;22.00;10.70;;;;;;;14.19;62.15;100885.63;32051710;27;20487;-83
2022/11/05 13:26:46;;;;;;;19.70;11.27;;;;;;;13.92;61.72;100894.03;32021392;27;20098;-84
2022/11/05 13:42:29;;;;;;;20.67;10.17;;;;;;;13.52;62.83;100906.91;32037160;27;20083;-83
2022/11/05 13:58:13;;;;;;;19.60;10.57;;;;;;;13.42;63.46;100926.97;32044610;27;20054;-84
2022/11/05 14:13:18;;;;;;;21.43;10.30;;;;;;;13.14;64.02;100939.13;32009610;27;20078;-84
2022/11/05 14:28:42;;;;;;;30.52;13.10;;;;;;;12.79;65.58;100968.47;32060417;27;20037;-85
2022/11/05 14:43:54;;;;;;;23.60;10.50;;;;;;;12.43;64.93;100970.16;32055011;27;20058;-84
2022/11/05 14:59:24;;;;;;;20.70;10.03;;;;;;;12.20;64.72;100976.28;32040657;27;20058;-84
2022/11/05 15:14:32;;;;;;;19.80;9.67;;;;;;;11.79;67.86;101007.06;32045759;27;20050;-86
2022/11/05 15:29:34;;;;;;;19.50;10.50;;;;;;;11.58;70.57;101018.09;32051822;27;20045;-84
2022/11/05 15:44:42;;;;;;;17.13;8.60;;;;;;;11.55;71.49;101029.81;32027576;27;20043;-83
2022/11/05 15:59:46;;;;;;;23.73;11.47;;;;;;;11.48;70.88;101054.34;32046487;27;20057;-85
2022/11/05 16:14:58;;;;;;;22.43;10.53;;;;;;;11.65;68.01;101058.84;32053692;27;20051;-87
2022/11/05 16:30:00;;;;;;;19.10;10.07;;;;;;;11.10;71.42;101096.94;32037596;27;20053;-85
2022/11/05 16:45:02;;;;;;;21.33;10.33;;;;;;;10.83;72.93;101115.72;32007422;27;20043;-86
2022/11/05 17:00:05;;;;;;;23.33;12.57;;;;;;;10.41;75.03;101124.75;32030714;27;20134;-87
2022/11/05 17:15:29;;;;;;;37.53;15.37;;;;;;;10.37;75.75;101122.09;32062085;27;20091;-85
2022/11/05 17:30:32;;;;;;;21.33;10.93;;;;;;;9.73;76.92;101146.53;32066982;27;20123;-85
2022/11/05 17:45:40;;;;;;;19.23;9.37;;;;;;;9.31;80.28;101179.00;32057379;27;20422;-83
2022/11/05 18:00:44;;;;;;;28.23;12.50;;;;;;;8.96;83.43;101175.03;32052218;27;20490;-85
2022/11/05 18:15:48;;;;;;;31.60;12.07;;;;;;;8.60;85.18;101189.53;32051052;27;20072;-84
2022/11/05 18:30:50;;;;;;;66.00;26.83;;;;;;;8.68;85.71;101207.38;32050901;27;20051;-84
2022/11/05 18:45:55;;;;;;;25.30;12.40;;;;;;;8.70;84.23;101222.06;32046414;27;20051;-85
2022/11/05 19:01:17;;;;;;;23.60;9.97;;;;;;;8.45;83.79;101243.56;32030013;27;20051;-84
2022/11/05 19:16:23;;;;;;;30.40;10.60;;;;;;;8.39;83.38;101255.88;32007913;27;20411;-85
2022/11/05 19:31:25;;;;;;;36.60;14.40;;;;;;;8.43;83.80;101267.53;32022926;27;20047;-84
2022/11/05 19:46:29;;;;;;;35.50;14.17;;;;;;;8.47;82.59;101289.97;32032311;27;20054;-84
2022/11/05 20:01:32;;;;;;;22.70;10.30;;;;;;;8.47;82.40;101295.38;32029124;27;20062;-85
2022/11/05 20:16:39;;;;;;;77.53;31.70;;;;;;;8.48;83.28;101299.66;32025737;27;20081;-84
2022/11/05 20:31:41;;;;;;;25.07;10.87;;;;;;;8.19;82.38;101295.13;32024665;27;20546;-85
2022/11/05 20:46:43;;;;;;;31.80;11.67;;;;;;;8.00;82.79;101316.97;32025402;27;20039;-84
2022/11/05 21:01:45;;;;;;;28.17;13.13;;;;;;;7.83;82.93;101310.19;32015473;27;20101;-86
2022/11/05 21:16:47;;;;;;;32.70;12.53;;;;;;;7.80;83.14;101311.72;32025008;27;20130;-85
2022/11/05 21:31:49;;;;;;;31.67;12.77;;;;;;;7.84;83.21;101311.75;32024650;27;20050;-85
2022/11/05 21:46:55;;;;;;;30.63;10.90;;;;;;;7.66;84.17;101324.28;32024434;27;20047;-85
2022/11/05 22:02:00;;;;;;;31.23;11.33;;;;;;;7.64;85.04;101330.06;32037496;27;20058;-85
2022/11/05 22:17:03;;;;;;;25.03;10.40;;;;;;;7.61;84.72;101335.44;32045374;27;20043;-85
2022/11/05 22:32:05;;;;;;;23.63;9.33;;;;;;;7.66;83.08;101349.41;32040924;27;20050;-84
2022/11/05 22:47:07;;;;;;;25.03;10.37;;;;;;;7.66;82.04;101360.22;32034891;27;20055;-84
2022/11/05 23:02:10;;;;;;;20.87;8.60;;;;;;;7.50;82.84;101373.13;31987510;27;20083;-84
2022/11/05 23:32:35;;;;;;;28.97;9.07;;;;;;;7.71;81.86;101388.84;32042210;27;20118;-84
